sensor_id;sensor_type;location;lat;lon;timestamp;temperature;humidity
44047;DHT22;29713;-33.888;151.150;2022-12-10T00:01:28;23.40;99.90
44047;DHT22;29713;-33.888;151.150;2022-12-10T00:03:56;23.40;99.90
44047;DHT22;29713;-33.888;151.150;2022-12-10T00:06:29;23.20;99.90
44047;DHT22;29713;-33.888;151.150;2022-12-10T00:09:01;23.10;99.90
44047;DHT22;29713;-33.888;151.150;2022-12-10T00:11:29;23.00;99.90
44047;DHT22;29713;-33.888;151.150;2022-12-10T00:13:57;23.00;99.90
44047;DHT22;29713;-33.888;151.150;2022-12-10T00:16:26;23.00;99.90
44047;DHT22;29713;-33.888;151.150;2022-12-10T00:18:54;23.00;99.90
44047;DHT22;29713;-33.888;151.150;2022-12-10T00:21:28;22.90;99.90
44047;DHT22;29713;-33.888;151.150;2022-12-10T00:23:56;22.90;99.90
44047;DHT22;29713;-33.888;151.150;2022-12-10T00:26:29;23.00;99.90
44047;DHT22;29713;-33.888;151.150;2022-12-10T00:28:59;23.10;99.90
44047;DHT22;29713;-33.888;151.150;2022-12-10T00:31:31;23.10;99.90
44047;DHT22;29713;-33.888;151.150;2022-12-10T00:34:02;23.10;99.90
44047;DHT22;29713;-33.888;151.150;2022-12-10T00:36:32;23.00;99.90
44047;DHT22;29713;-33.888;151.150;2022-12-10T00:39:00;22.90;99.90
44047;DHT22;29713;-33.888;151.150;2022-12-10T00:41:28;22.90;99.90
44047;DHT22;29713;-33.888;151.150;2022-12-10T00:43:55;22.80;99.90
44047;DHT22;29713;-33.888;151.150;2022-12-10T00:46:23;22.70;99.90
44047;DHT22;29713;-33.888;151.150;2022-12-10T00:48:50;22.70;99.90
44047;DHT22;29713;-33.888;151.150;2022-12-10T00:51:23;22.80;99.90
44047;DHT22;29713;-33.888;151.150;2022-12-10T00:53:53;22.70;99.90
44047;DHT22;29713;-33.888;151.150;2022-12-10T00:56:23;22.70;99.90
44047;DHT22;29713;-33.888;151.150;2022-12-10T00:58:51;22.80;99.90
44047;DHT22;29713;-33.888;151.150;2022-12-10T01:01:23;22.90;99.90
44047;DHT22;29713;-33.888;151.150;2022-12-10T01:03:53;23.00;99.90
44047;DHT22;29713;-33.888;151.150;2022-12-10T01:06:27;23.30;99.90
44047;DHT22;29713;-33.888;151.150;2022-12-10T01:08:58;23.50;99.90
44047;DHT22;29713;-33.888;151.150;2022-12-10T01:11:29;23.40;99.90
44047;DHT22;29713;-33.888;151.150;2022-12-10T01:13:57;23.20;99.90
44047;DHT22;29713;-33.888;151.150;2022-12-10T01:16:25;23.10;99.90
44047;DHT22;29713;-33.888;151.150;2022-12-10T01:18:59;23.00;99.90
44047;DHT22;29713;-33.888;151.150;2022-12-10T01:21:28;22.90;99.90
44047;DHT22;29713;-33.888;151.150;2022-12-10T01:23:57;22.80;99.90
44047;DHT22;29713;-33.888;151.150;2022-12-10T01:26:28;22.90;99.90
44047;DHT22;29713;-33.888;151.150;2022-12-10T01:28:56;22.80;99.90
44047;DHT22;29713;-33.888;151.150;2022-12-10T01:31:26;22.80;99.90
44047;DHT22;29713;-33.888;151.150;2022-12-10T01:33:55;22.80;99.90
44047;DHT22;29713;-33.888;151.150;2022-12-10T01:36:29;23.00;99.90
44047;DHT22;29713;-33.888;151.150;2022-12-10T01:38:57;23.30;99.90
44047;DHT22;29713;-33.888;151.150;2022-12-10T01:41:31;23.80;99.90
44047;DHT22;29713;-33.888;151.150;2022-12-10T01:44:58;24.30;99.90
44047;DHT22;29713;-33.888;151.150;2022-12-10T01:46:54;24.90;99.90
44047;DHT22;29713;-33.888;151.150;2022-12-10T01:49:24;25.20;99.90
44047;DHT22;29713;-33.888;151.150;2022-12-10T01:51:54;25.10;99.90
44047;DHT22;29713;-33.888;151.150;2022-12-10T01:54:27;25.10;99.90
44047;DHT22;29713;-33.888;151.150;2022-12-10T01:59:31;25.40;99.90
44047;DHT22;29713;-33.888;151.150;2022-12-10T02:02:19;25.10;99.90
44047;DHT22;29713;-33.888;151.150;2022-12-10T02:13:22;24.10;99.90
44047;DHT22;29713;-33.888;151.150;2022-12-10T02:16:18;24.50;99.90
44047;DHT22;29713;-33.888;151.150;2022-12-10T02:18:57;24.70;99.90
44047;DHT22;29713;-33.888;151.150;2022-12-10T02:21:32;24.80;99.90
44047;DHT22;29713;-33.888;151.150;2022-12-10T02:24:05;24.60;99.90
44047;DHT22;29713;-33.888;151.150;2022-12-10T02:29:24;24.40;99.90
44047;DHT22;29713;-33.888;151.150;2022-12-10T02:31:57;24.40;99.90
44047;DHT22;29713;-33.888;151.150;2022-12-10T02:34:30;24.80;99.90
44047;DHT22;29713;-33.888;151.150;2022-12-10T02:37:03;25.30;99.90
44047;DHT22;29713;-33.888;151.150;2022-12-10T02:39:36;26.10;99.90
44047;DHT22;29713;-33.888;151.150;2022-12-10T02:42:06;27.10;99.90
44047;DHT22;29713;-33.888;151.150;2022-12-10T02:44:36;28.10;99.90
44047;DHT22;29713;-33.888;151.150;2022-12-10T02:47:06;28.40;98.60
44047;DHT22;29713;-33.888;151.150;2022-12-10T02:49:34;28.40;99.00
44047;DHT22;29713;-33.888;151.150;2022-12-10T02:52:28;27.90;98.60
44047;DHT22;29713;-33.888;151.150;2022-12-10T02:54:56;27.20;98.60
44047;DHT22;29713;-33.888;151.150;2022-12-10T03:05:16;25.20;99.90
44047;DHT22;29713;-33.888;151.150;2022-12-10T03:13:04;23.90;99.90
44047;DHT22;29713;-33.888;151.150;2022-12-10T03:15:35;23.80;99.90
44047;DHT22;29713;-33.888;151.150;2022-12-10T03:18:06;23.80;99.90
44047;DHT22;29713;-33.888;151.150;2022-12-10T03:20:38;24.00;99.90
44047;DHT22;29713;-33.888;151.150;2022-12-10T03:23:09;24.90;99.90
44047;DHT22;29713;-33.888;151.150;2022-12-10T03:25:38;25.80;99.90
44047;DHT22;29713;-33.888;151.150;2022-12-10T03:28:07;25.70;99.90
44047;DHT22;29713;-33.888;151.150;2022-12-10T03:30:36;25.40;99.90
44047;DHT22;29713;-33.888;151.150;2022-12-10T03:33:04;25.20;99.90
44047;DHT22;29713;-33.888;151.150;2022-12-10T03:35:32;25.00;99.90
44047;DHT22;29713;-33.888;151.150;2022-12-10T03:38:00;25.70;99.90
44047;DHT22;29713;-33.888;151.150;2022-12-10T03:40:28;26.40;99.90
44047;DHT22;29713;-33.888;151.150;2022-12-10T03:42:55;27.00;99.90
44047;DHT22;29713;-33.888;151.150;2022-12-10T03:45:22;27.70;99.80
44047;DHT22;29713;-33.888;151.150;2022-12-10T03:47:50;28.30;99.00
44047;DHT22;29713;-33.888;151.150;2022-12-10T03:50:17;28.10;98.70
44047;DHT22;29713;-33.888;151.150;2022-12-10T03:52:44;27.80;98.50
44047;DHT22;29713;-33.888;151.150;2022-12-10T03:55:12;27.30;98.80
44047;DHT22;29713;-33.888;151.150;2022-12-10T03:57:39;26.70;99.00
44047;DHT22;29713;-33.888;151.150;2022-12-10T04:00:07;26.20;99.80
44047;DHT22;29713;-33.888;151.150;2022-12-10T04:02:37;25.60;99.90
44047;DHT22;29713;-33.888;151.150;2022-12-10T04:05:05;25.10;99.90
44047;DHT22;29713;-33.888;151.150;2022-12-10T04:07:33;24.90;99.90
44047;DHT22;29713;-33.888;151.150;2022-12-10T04:10:02;24.70;99.90
44047;DHT22;29713;-33.888;151.150;2022-12-10T04:12:29;24.50;99.90
44047;DHT22;29713;-33.888;151.150;2022-12-10T04:14:57;24.40;99.90
44047;DHT22;29713;-33.888;151.150;2022-12-10T04:17:42;24.50;99.90
44047;DHT22;29713;-33.888;151.150;2022-12-10T04:20:10;24.70;99.90
44047;DHT22;29713;-33.888;151.150;2022-12-10T04:22:58;25.50;99.90
44047;DHT22;29713;-33.888;151.150;2022-12-10T04:25:43;26.60;99.90
44047;DHT22;29713;-33.888;151.150;2022-12-10T04:28:28;27.40;99.70
44047;DHT22;29713;-33.888;151.150;2022-12-10T04:30:55;27.30;99.40
44047;DHT22;29713;-33.888;151.150;2022-12-10T04:33:23;26.90;99.00
44047;DHT22;29713;-33.888;151.150;2022-12-10T04:35:50;26.50;99.90
44047;DHT22;29713;-33.888;151.150;2022-12-10T04:38:17;26.80;99.90
44047;DHT22;29713;-33.888;151.150;2022-12-10T04:40:45;27.10;99.60
44047;DHT22;29713;-33.888;151.150;2022-12-10T04:43:12;27.40;99.10
44047;DHT22;29713;-33.888;151.150;2022-12-10T04:45:39;27.80;98.60
44047;DHT22;29713;-33.888;151.150;2022-12-10T04:48:06;28.10;98.40
44047;DHT22;29713;-33.888;151.150;2022-12-10T04:50:34;28.30;98.00
44047;DHT22;29713;-33.888;151.150;2022-12-10T04:53:01;28.60;98.20
44047;DHT22;29713;-33.888;151.150;2022-12-10T04:55:28;28.90;97.80
44047;DHT22;29713;-33.888;151.150;2022-12-10T04:57:56;28.70;97.10
44047;DHT22;29713;-33.888;151.150;2022-12-10T05:00:23;28.50;97.20
44047;DHT22;29713;-33.888;151.150;2022-12-10T05:02:51;28.20;97.40
44047;DHT22;29713;-33.888;151.150;2022-12-10T05:05:18;28.30;97.10
44047;DHT22;29713;-33.888;151.150;2022-12-10T05:07:46;28.30;97.30
44047;DHT22;29713;-33.888;151.150;2022-12-10T05:10:13;28.30;97.60
44047;DHT22;29713;-33.888;151.150;2022-12-10T05:12:40;28.50;97.30
44047;DHT22;29713;-33.888;151.150;2022-12-10T05:15:08;28.30;97.30
44047;DHT22;29713;-33.888;151.150;2022-12-10T05:17:36;28.80;96.70
44047;DHT22;29713;-33.888;151.150;2022-12-10T05:20:03;28.90;96.60
44047;DHT22;29713;-33.888;151.150;2022-12-10T05:22:31;29.00;96.30
44047;DHT22;29713;-33.888;151.150;2022-12-10T05:25:16;29.10;95.90
44047;DHT22;29713;-33.888;151.150;2022-12-10T05:27:43;28.90;95.50
44047;DHT22;29713;-33.888;151.150;2022-12-10T05:30:11;28.70;95.50
44047;DHT22;29713;-33.888;151.150;2022-12-10T05:32:39;28.60;95.60
44047;DHT22;29713;-33.888;151.150;2022-12-10T05:35:06;28.60;95.50
44047;DHT22;29713;-33.888;151.150;2022-12-10T05:37:34;28.50;95.90
44047;DHT22;29713;-33.888;151.150;2022-12-10T05:40:02;28.60;95.60
44047;DHT22;29713;-33.888;151.150;2022-12-10T05:42:29;28.60;95.60
44047;DHT22;29713;-33.888;151.150;2022-12-10T05:44:56;28.50;95.60
44047;DHT22;29713;-33.888;151.150;2022-12-10T05:47:24;28.30;95.60
44047;DHT22;29713;-33.888;151.150;2022-12-10T05:49:51;28.20;96.00
44047;DHT22;29713;-33.888;151.150;2022-12-10T05:52:18;28.50;95.80
44047;DHT22;29713;-33.888;151.150;2022-12-10T05:54:45;28.40;95.70
44047;DHT22;29713;-33.888;151.150;2022-12-10T05:57:13;28.20;96.20
44047;DHT22;29713;-33.888;151.150;2022-12-10T05:59:41;28.10;96.00
44047;DHT22;29713;-33.888;151.150;2022-12-10T06:02:08;27.80;96.30
44047;DHT22;29713;-33.888;151.150;2022-12-10T06:04:36;27.80;96.50
44047;DHT22;29713;-33.888;151.150;2022-12-10T06:07:03;27.80;96.30
44047;DHT22;29713;-33.888;151.150;2022-12-10T06:09:30;27.70;96.60
44047;DHT22;29713;-33.888;151.150;2022-12-10T06:11:58;27.40;96.40
44047;DHT22;29713;-33.888;151.150;2022-12-10T06:14:25;27.30;96.40
44047;DHT22;29713;-33.888;151.150;2022-12-10T06:16:52;27.00;96.90
44047;DHT22;29713;-33.888;151.150;2022-12-10T06:19:20;26.90;97.30
44047;DHT22;29713;-33.888;151.150;2022-12-10T06:21:47;26.90;97.90
44047;DHT22;29713;-33.888;151.150;2022-12-10T06:24:14;26.60;97.50
44047;DHT22;29713;-33.888;151.150;2022-12-10T06:26:41;26.40;97.80
44047;DHT22;29713;-33.888;151.150;2022-12-10T06:29:09;26.30;98.40
44047;DHT22;29713;-33.888;151.150;2022-12-10T06:31:36;26.10;98.70
44047;DHT22;29713;-33.888;151.150;2022-12-10T06:34:04;25.80;98.50
44047;DHT22;29713;-33.888;151.150;2022-12-10T06:36:31;25.40;98.80
44047;DHT22;29713;-33.888;151.150;2022-12-10T06:38:59;25.10;99.10
44047;DHT22;29713;-33.888;151.150;2022-12-10T06:41:26;24.70;99.60
44047;DHT22;29713;-33.888;151.150;2022-12-10T06:43:54;24.40;99.80
44047;DHT22;29713;-33.888;151.150;2022-12-10T06:46:25;24.10;99.90
44047;DHT22;29713;-33.888;151.150;2022-12-10T06:48:54;23.90;99.90
44047;DHT22;29713;-33.888;151.150;2022-12-10T06:51:21;23.60;99.90
44047;DHT22;29713;-33.888;151.150;2022-12-10T06:53:48;23.50;99.90
44047;DHT22;29713;-33.888;151.150;2022-12-10T06:56:18;23.50;99.90
44047;DHT22;29713;-33.888;151.150;2022-12-10T06:58:46;23.40;99.90
44047;DHT22;29713;-33.888;151.150;2022-12-10T07:01:20;23.20;99.90
44047;DHT22;29713;-33.888;151.150;2022-12-10T07:03:52;23.00;99.90
44047;DHT22;29713;-33.888;151.150;2022-12-10T07:06:20;23.00;99.90
44047;DHT22;29713;-33.888;151.150;2022-12-10T07:08:48;23.00;99.90
44047;DHT22;29713;-33.888;151.150;2022-12-10T07:11:18;22.90;99.90
44047;DHT22;29713;-33.888;151.150;2022-12-10T07:13:46;22.80;99.90
44047;DHT22;29713;-33.888;151.150;2022-12-10T07:16:22;22.70;99.90
44047;DHT22;29713;-33.888;151.150;2022-12-10T07:18:50;22.60;99.90
44047;DHT22;29713;-33.888;151.150;2022-12-10T07:21:23;22.50;99.90
44047;DHT22;29713;-33.888;151.150;2022-12-10T07:23:52;22.40;99.90
44047;DHT22;29713;-33.888;151.150;2022-12-10T07:26:35;22.40;99.90
44047;DHT22;29713;-33.888;151.150;2022-12-10T07:29:04;22.30;99.90
44047;DHT22;29713;-33.888;151.150;2022-12-10T07:31:33;22.20;99.90
44047;DHT22;29713;-33.888;151.150;2022-12-10T07:34:01;22.20;99.90
44047;DHT22;29713;-33.888;151.150;2022-12-10T07:36:29;22.10;99.90
44047;DHT22;29713;-33.888;151.150;2022-12-10T07:38:56;22.10;99.90
44047;DHT22;29713;-33.888;151.150;2022-12-10T07:41:24;22.00;99.90
44047;DHT22;29713;-33.888;151.150;2022-12-10T07:43:52;21.90;99.90
44047;DHT22;29713;-33.888;151.150;2022-12-10T07:46:25;21.90;99.90
44047;DHT22;29713;-33.888;151.150;2022-12-10T07:48:53;21.80;99.90
44047;DHT22;29713;-33.888;151.150;2022-12-10T07:51:21;21.60;99.90
44047;DHT22;29713;-33.888;151.150;2022-12-10T07:53:52;21.60;99.90
44047;DHT22;29713;-33.888;151.150;2022-12-10T07:56:20;21.60;99.90
44047;DHT22;29713;-33.888;151.150;2022-12-10T07:58:49;21.40;99.90
44047;DHT22;29713;-33.888;151.150;2022-12-10T08:01:18;21.40;99.90
44047;DHT22;29713;-33.888;151.150;2022-12-10T08:03:46;21.40;99.90
44047;DHT22;29713;-33.888;151.150;2022-12-10T08:06:16;21.30;99.90
44047;DHT22;29713;-33.888;151.150;2022-12-10T08:08:45;21.20;99.90
44047;DHT22;29713;-33.888;151.150;2022-12-10T08:11:13;21.20;99.90
44047;DHT22;29713;-33.888;151.150;2022-12-10T08:13:41;21.10;99.90
44047;DHT22;29713;-33.888;151.150;2022-12-10T08:16:15;21.10;99.90
44047;DHT22;29713;-33.888;151.150;2022-12-10T08:18:43;21.10;99.90
44047;DHT22;29713;-33.888;151.150;2022-12-10T08:21:13;21.10;99.90
44047;DHT22;29713;-33.888;151.150;2022-12-10T08:23:41;21.10;99.90
44047;DHT22;29713;-33.888;151.150;2022-12-10T08:26:14;21.00;99.90
44047;DHT22;29713;-33.888;151.150;2022-12-10T08:28:42;21.00;99.90
44047;DHT22;29713;-33.888;151.150;2022-12-10T08:31:11;21.00;99.90
44047;DHT22;29713;-33.888;151.150;2022-12-10T08:33:39;20.90;99.90
44047;DHT22;29713;-33.888;151.150;2022-12-10T08:36:09;20.90;99.90
44047;DHT22;29713;-33.888;151.150;2022-12-10T08:38:39;20.90;99.90
44047;DHT22;29713;-33.888;151.150;2022-12-10T08:41:15;20.80;99.90
44047;DHT22;29713;-33.888;151.150;2022-12-10T08:43:43;20.80;99.90
44047;DHT22;29713;-33.888;151.150;2022-12-10T08:46:12;20.70;99.90
44047;DHT22;29713;-33.888;151.150;2022-12-10T08:48:40;20.80;99.90
44047;DHT22;29713;-33.888;151.150;2022-12-10T08:51:08;20.80;99.90
44047;DHT22;29713;-33.888;151.150;2022-12-10T08:53:36;20.70;99.90
44047;DHT22;29713;-33.888;151.150;2022-12-10T08:56:03;20.70;99.90
44047;DHT22;29713;-33.888;151.150;2022-12-10T08:58:31;20.60;99.90
44047;DHT22;29713;-33.888;151.150;2022-12-10T09:01:00;20.60;99.90
44047;DHT22;29713;-33.888;151.150;2022-12-10T09:03:32;20.50;99.90
44047;DHT22;29713;-33.888;151.150;2022-12-10T09:06:03;20.50;99.90
44047;DHT22;29713;-33.888;151.150;2022-12-10T09:08:30;20.50;99.90
44047;DHT22;29713;-33.888;151.150;2022-12-10T09:10:58;20.40;99.90
44047;DHT22;29713;-33.888;151.150;2022-12-10T09:13:25;20.40;99.90
44047;DHT22;29713;-33.888;151.150;2022-12-10T09:15:53;20.40;99.90
44047;DHT22;29713;-33.888;151.150;2022-12-10T09:18:20;20.30;99.90
44047;DHT22;29713;-33.888;151.150;2022-12-10T09:20:47;20.30;99.90
44047;DHT22;29713;-33.888;151.150;2022-12-10T09:23:15;20.30;99.90
44047;DHT22;29713;-33.888;151.150;2022-12-10T09:25:42;20.20;99.90
44047;DHT22;29713;-33.888;151.150;2022-12-10T09:28:09;20.20;99.90
44047;DHT22;29713;-33.888;151.150;2022-12-10T09:30:37;20.20;99.90
44047;DHT22;29713;-33.888;151.150;2022-12-10T09:33:05;20.20;99.90
44047;DHT22;29713;-33.888;151.150;2022-12-10T09:35:32;20.20;99.90
44047;DHT22;29713;-33.888;151.150;2022-12-10T09:37:59;20.20;99.90
44047;DHT22;29713;-33.888;151.150;2022-12-10T09:40:39;20.20;99.90
44047;DHT22;29713;-33.888;151.150;2022-12-10T09:43:21;20.20;99.90
44047;DHT22;29713;-33.888;151.150;2022-12-10T09:46:11;20.20;99.90
44047;DHT22;29713;-33.888;151.150;2022-12-10T09:49:08;20.10;99.90
44047;DHT22;29713;-33.888;151.150;2022-12-10T09:51:39;20.20;99.90
44047;DHT22;29713;-33.888;151.150;2022-12-10T09:54:31;20.10;99.90
44047;DHT22;29713;-33.888;151.150;2022-12-10T09:57:00;20.20;99.90
44047;DHT22;29713;-33.888;151.150;2022-12-10T09:59:32;20.10;99.90
44047;DHT22;29713;-33.888;151.150;2022-12-10T10:02:22;20.10;99.90
44047;DHT22;29713;-33.888;151.150;2022-12-10T10:04:52;20.10;99.90
44047;DHT22;29713;-33.888;151.150;2022-12-10T10:07:26;20.10;99.90
44047;DHT22;29713;-33.888;151.150;2022-12-10T10:10:02;20.00;99.90
44047;DHT22;29713;-33.888;151.150;2022-12-10T10:12:31;20.00;99.90
44047;DHT22;29713;-33.888;151.150;2022-12-10T10:15:12;20.00;99.90
44047;DHT22;29713;-33.888;151.150;2022-12-10T10:17:40;19.90;99.90
44047;DHT22;29713;-33.888;151.150;2022-12-10T10:20:12;19.90;99.90
44047;DHT22;29713;-33.888;151.150;2022-12-10T10:22:41;19.90;99.90
44047;DHT22;29713;-33.888;151.150;2022-12-10T10:25:18;19.90;99.90
44047;DHT22;29713;-33.888;151.150;2022-12-10T10:27:46;20.00;99.90
44047;DHT22;29713;-33.888;151.150;2022-12-10T10:30:20;19.90;99.90
44047;DHT22;29713;-33.888;151.150;2022-12-10T10:35:25;19.90;99.90
44047;DHT22;29713;-33.888;151.150;2022-12-10T10:38:06;19.90;99.90
44047;DHT22;29713;-33.888;151.150;2022-12-10T10:40:41;19.90;99.90
44047;DHT22;29713;-33.888;151.150;2022-12-10T10:43:34;19.90;99.90
44047;DHT22;29713;-33.888;151.150;2022-12-10T10:46:11;19.90;99.90
44047;DHT22;29713;-33.888;151.150;2022-12-10T10:48:39;19.80;99.90
44047;DHT22;29713;-33.888;151.150;2022-12-10T10:53:50;19.80;99.90
44047;DHT22;29713;-33.888;151.150;2022-12-10T10:56:38;19.70;99.90
44047;DHT22;29713;-33.888;151.150;2022-12-10T11:01:45;19.70;99.90
44047;DHT22;29713;-33.888;151.150;2022-12-10T11:04:15;19.70;99.90
44047;DHT22;29713;-33.888;151.150;2022-12-10T11:06:43;19.80;99.90
44047;DHT22;29713;-33.888;151.150;2022-12-10T11:09:27;19.80;99.90
44047;DHT22;29713;-33.888;151.150;2022-12-10T11:12:04;19.80;99.90
44047;DHT22;29713;-33.888;151.150;2022-12-10T11:14:35;19.80;99.90
44047;DHT22;29713;-33.888;151.150;2022-12-10T11:20:13;19.80;99.90
44047;DHT22;29713;-33.888;151.150;2022-12-10T11:25:44;19.80;99.90
44047;DHT22;29713;-33.888;151.150;2022-12-10T11:48:34;19.60;99.90
44047;DHT22;29713;-33.888;151.150;2022-12-10T11:51:11;19.60;99.90
44047;DHT22;29713;-33.888;151.150;2022-12-10T11:53:55;19.60;99.90
44047;DHT22;29713;-33.888;151.150;2022-12-10T11:56:40;19.60;99.90
44047;DHT22;29713;-33.888;151.150;2022-12-10T11:59:30;19.60;99.90
44047;DHT22;29713;-33.888;151.150;2022-12-10T12:02:37;19.70;99.90
44047;DHT22;29713;-33.888;151.150;2022-12-10T12:08:16;19.60;99.90
44047;DHT22;29713;-33.888;151.150;2022-12-10T12:16:44;19.60;99.90
44047;DHT22;29713;-33.888;151.150;2022-12-10T12:19:23;19.60;99.90
44047;DHT22;29713;-33.888;151.150;2022-12-10T12:21:52;19.60;99.90
44047;DHT22;29713;-33.888;151.150;2022-12-10T12:24:34;19.60;99.90
44047;DHT22;29713;-33.888;151.150;2022-12-10T12:27:12;19.50;99.90
44047;DHT22;29713;-33.888;151.150;2022-12-10T12:29:46;19.50;99.90
44047;DHT22;29713;-33.888;151.150;2022-12-10T12:32:32;19.50;99.90
44047;DHT22;29713;-33.888;151.150;2022-12-10T12:38:17;19.40;99.90
44047;DHT22;29713;-33.888;151.150;2022-12-10T12:41:03;19.40;99.90
44047;DHT22;29713;-33.888;151.150;2022-12-10T12:46:17;19.30;99.90
44047;DHT22;29713;-33.888;151.150;2022-12-10T12:49:03;19.30;99.90
44047;DHT22;29713;-33.888;151.150;2022-12-10T12:51:50;19.20;99.90
44047;DHT22;29713;-33.888;151.150;2022-12-10T12:54:19;19.20;99.90
44047;DHT22;29713;-33.888;151.150;2022-12-10T12:57:06;19.20;99.90
44047;DHT22;29713;-33.888;151.150;2022-12-10T13:04:51;19.10;99.90
44047;DHT22;29713;-33.888;151.150;2022-12-10T13:09:52;19.10;99.90
44047;DHT22;29713;-33.888;151.150;2022-12-10T13:16:35;19.00;99.90
44047;DHT22;29713;-33.888;151.150;2022-12-10T13:22:10;18.90;99.90
44047;DHT22;29713;-33.888;151.150;2022-12-10T13:29:55;18.80;99.90
44047;DHT22;29713;-33.888;151.150;2022-12-10T13:32:45;18.80;99.90
44047;DHT22;29713;-33.888;151.150;2022-12-10T13:42:59;18.70;99.90
44047;DHT22;29713;-33.888;151.150;2022-12-10T13:48:51;18.60;99.90
44047;DHT22;29713;-33.888;151.150;2022-12-10T13:51:52;18.60;99.90
44047;DHT22;29713;-33.888;151.150;2022-12-10T13:57:19;18.50;99.90
44047;DHT22;29713;-33.888;151.150;2022-12-10T14:00:15;18.60;99.90
44047;DHT22;29713;-33.888;151.150;2022-12-10T14:03:17;18.60;99.90
44047;DHT22;29713;-33.888;151.150;2022-12-10T14:06:17;18.60;99.90
44047;DHT22;29713;-33.888;151.150;2022-12-10T14:09:16;18.60;99.90
44047;DHT22;29713;-33.888;151.150;2022-12-10T14:12:06;18.60;99.90
44047;DHT22;29713;-33.888;151.150;2022-12-10T14:14:35;18.60;99.90
44047;DHT22;29713;-33.888;151.150;2022-12-10T14:17:16;18.60;99.90
44047;DHT22;29713;-33.888;151.150;2022-12-10T14:19:47;18.60;99.90
44047;DHT22;29713;-33.888;151.150;2022-12-10T14:22:38;18.50;99.90
44047;DHT22;29713;-33.888;151.150;2022-12-10T14:25:13;18.50;99.90
44047;DHT22;29713;-33.888;151.150;2022-12-10T14:27:41;18.40;99.90
44047;DHT22;29713;-33.888;151.150;2022-12-10T14:30:20;18.40;99.90
44047;DHT22;29713;-33.888;151.150;2022-12-10T14:32:48;18.40;99.90
44047;DHT22;29713;-33.888;151.150;2022-12-10T14:35:25;18.40;99.90
44047;DHT22;29713;-33.888;151.150;2022-12-10T14:37:56;18.40;99.90
44047;DHT22;29713;-33.888;151.150;2022-12-10T14:43:11;18.30;99.90
44047;DHT22;29713;-33.888;151.150;2022-12-10T14:45:49;18.30;99.90
44047;DHT22;29713;-33.888;151.150;2022-12-10T14:48:18;18.30;99.90
44047;DHT22;29713;-33.888;151.150;2022-12-10T14:50:46;18.30;99.90
44047;DHT22;29713;-33.888;151.150;2022-12-10T14:53:32;18.30;99.90
44047;DHT22;29713;-33.888;151.150;2022-12-10T14:56:02;18.20;99.90
44047;DHT22;29713;-33.888;151.150;2022-12-10T14:58:50;18.20;99.90
44047;DHT22;29713;-33.888;151.150;2022-12-10T15:01:30;18.10;99.90
44047;DHT22;29713;-33.888;151.150;2022-12-10T15:04:01;18.10;99.90
44047;DHT22;29713;-33.888;151.150;2022-12-10T15:06:34;18.10;99.90
44047;DHT22;29713;-33.888;151.150;2022-12-10T15:09:04;18.10;99.90
44047;DHT22;29713;-33.888;151.150;2022-12-10T15:11:32;18.00;99.90
44047;DHT22;29713;-33.888;151.150;2022-12-10T15:14:01;18.00;99.90
44047;DHT22;29713;-33.888;151.150;2022-12-10T15:16:47;18.00;99.90
44047;DHT22;29713;-33.888;151.150;2022-12-10T15:19:22;18.00;99.90
44047;DHT22;29713;-33.888;151.150;2022-12-10T15:21:52;18.00;99.90
44047;DHT22;29713;-33.888;151.150;2022-12-10T15:24:37;18.00;99.90
44047;DHT22;29713;-33.888;151.150;2022-12-10T15:27:16;18.00;99.90
44047;DHT22;29713;-33.888;151.150;2022-12-10T15:29:44;18.00;99.90
44047;DHT22;29713;-33.888;151.150;2022-12-10T15:32:24;18.00;99.90
44047;DHT22;29713;-33.888;151.150;2022-12-10T15:34:55;18.00;99.90
44047;DHT22;29713;-33.888;151.150;2022-12-10T15:37:42;18.00;99.90
44047;DHT22;29713;-33.888;151.150;2022-12-10T15:40:29;18.00;99.90
44047;DHT22;29713;-33.888;151.150;2022-12-10T15:43:25;17.90;99.90
44047;DHT22;29713;-33.888;151.150;2022-12-10T15:45:53;17.90;99.90
44047;DHT22;29713;-33.888;151.150;2022-12-10T15:48:20;17.90;99.90
44047;DHT22;29713;-33.888;151.150;2022-12-10T15:50:48;17.80;99.90
44047;DHT22;29713;-33.888;151.150;2022-12-10T15:53:24;17.90;99.90
44047;DHT22;29713;-33.888;151.150;2022-12-10T15:55:53;17.80;99.90
44047;DHT22;29713;-33.888;151.150;2022-12-10T15:58:20;17.80;99.90
44047;DHT22;29713;-33.888;151.150;2022-12-10T16:00:47;17.80;99.90
44047;DHT22;29713;-33.888;151.150;2022-12-10T16:03:16;17.90;99.90
44047;DHT22;29713;-33.888;151.150;2022-12-10T16:05:47;17.80;99.90
44047;DHT22;29713;-33.888;151.150;2022-12-10T16:08:23;17.80;99.90
44047;DHT22;29713;-33.888;151.150;2022-12-10T16:10:52;17.80;99.90
44047;DHT22;29713;-33.888;151.150;2022-12-10T16:13:32;17.80;99.90
44047;DHT22;29713;-33.888;151.150;2022-12-10T16:16:10;17.80;99.90
44047;DHT22;29713;-33.888;151.150;2022-12-10T16:18:39;17.80;99.90
44047;DHT22;29713;-33.888;151.150;2022-12-10T16:21:07;17.80;99.90
44047;DHT22;29713;-33.888;151.150;2022-12-10T16:23:35;17.70;99.90
44047;DHT22;29713;-33.888;151.150;2022-12-10T16:26:13;17.70;99.90
44047;DHT22;29713;-33.888;151.150;2022-12-10T16:28:42;17.70;99.90
44047;DHT22;29713;-33.888;151.150;2022-12-10T16:31:13;17.70;99.90
44047;DHT22;29713;-33.888;151.150;2022-12-10T16:33:41;17.70;99.90
44047;DHT22;29713;-33.888;151.150;2022-12-10T16:36:10;17.70;99.90
44047;DHT22;29713;-33.888;151.150;2022-12-10T16:38:39;17.70;99.90
44047;DHT22;29713;-33.888;151.150;2022-12-10T16:41:32;17.70;99.90
44047;DHT22;29713;-33.888;151.150;2022-12-10T16:44:00;17.70;99.90
44047;DHT22;29713;-33.888;151.150;2022-12-10T16:46:27;17.60;99.90
44047;DHT22;29713;-33.888;151.150;2022-12-10T16:48:54;17.60;99.90
44047;DHT22;29713;-33.888;151.150;2022-12-10T16:51:27;17.60;99.90
44047;DHT22;29713;-33.888;151.150;2022-12-10T16:53:56;17.60;99.90
44047;DHT22;29713;-33.888;151.150;2022-12-10T16:56:23;17.60;99.90
44047;DHT22;29713;-33.888;151.150;2022-12-10T16:58:51;17.60;99.90
44047;DHT22;29713;-33.888;151.150;2022-12-10T17:01:24;17.50;99.90
44047;DHT22;29713;-33.888;151.150;2022-12-10T17:03:54;17.50;99.90
44047;DHT22;29713;-33.888;151.150;2022-12-10T17:06:22;17.50;99.90
44047;DHT22;29713;-33.888;151.150;2022-12-10T17:08:50;17.50;99.90
44047;DHT22;29713;-33.888;151.150;2022-12-10T17:11:25;17.50;99.90